Terminal Aerodrome Forecast
Issued by NWS Pittsburgh, PA

Current Version | Previous Version | Graphics & Text | Print | Product List | Glossary Off
Versions: 1 2 3 4 5 6 7 8 9 10 11 12 13 14 15 16 17 18 19 20 21 22 23 24 25 26

976
FTUS41 KPBZ 181130
TAFPIT
TAF
KPIT 181130Z 1812/1918 22005KT P6SM OVC035
     FM181400 22005KT P6SM OVC020
     FM181600 23008KT P6SM -DZ OVC008
     FM190000 25008KT P6SM OVC010
     FM191500 24010G18KT P6SM BKN015=

USA.gov is the U.S. government's official web portal to all federal, state and local government web resources and services.